Terminal Aerodrome Forecast
Issued by NWS

Home | Current Version | Previous Version | Text Only | Print | Product List | Glossary On
Versions: 1 2 3 4 5 6 7 8 9 10 11 12 13 14 15 16 17 18
000
FTUS46 KMFR 252344
TAFOTH
TAF
KOTH 252344Z 2600/2624 02007KT P6SM VCSH SCT030 BKN040 OVC050=

USA.gov is the U.S. government's official web portal to all federal, state and local government web resources and services.